Time;durP1;ratioP1;P1;durP2;ratioP2;P2;SDS_P1;SDS_P2;PMS_P1;PMS_P2;Temp;Humidity;BMP_temperature;BMP_pressure;BME280_temperature;BME280_humidity;BME280_pressure;Samples;Min_cycle;Max_cycle;Signal;HPM_P1;HPM_P2
2021/09/05 11:16:19;;;;;;;13.07;6.70;;;;;;;-149.78;62.36;50115.50;5063405;27;1307203;-73
2021/09/05 11:18:45;;;;;;;13.82;7.20;;;;;;;-149.78;60.40;50076.41;5089361;28;20036;-73
2021/09/05 11:21:24;;;;;;;14.18;6.55;;;;;;;-149.78;62.08;50095.94;5108884;28;20031;-73
2021/09/05 11:23:51;;;;;;;79.00;44.42;;;;;;;-149.78;59.71;50103.78;5104889;28;20028;-73
2021/09/05 11:26:17;;;;;;;85.72;41.10;;;;;;;-149.78;63.62;50080.31;5108963;28;20034;-74
2021/09/05 11:28:43;;;;;;;68.80;32.00;;;;;;;-149.78;64.63;50052.94;5109133;28;20031;-73
2021/09/05 11:31:09;;;;;;;15.18;7.43;;;;;;;-149.78;62.18;50111.59;5109928;28;20390;-73
2021/09/05 11:33:35;;;;;;;13.85;7.07;;;;;;;-149.78;62.17;50129.19;5108215;28;20028;-74
2021/09/05 11:36:01;;;;;;;15.65;8.05;;;;;;;-149.78;63.89;50127.25;5089752;28;20031;-72
2021/09/05 11:38:29;;;;;;;15.82;7.07;;;;;;;-149.78;65.31;50095.94;5108638;28;20039;-73
2021/09/05 11:40:55;;;;;;;41.92;19.67;;;;;;;-149.78;66.03;50123.34;5105282;28;20432;-73
2021/09/05 11:43:40;;;;;;;27.23;14.88;;;;;;;-149.78;64.66;50123.34;5109523;28;20528;-73
2021/09/05 11:46:17;;;;;;;14.93;8.35;;;;;;;-149.78;64.88;50135.06;5106908;28;20028;-73
2021/09/05 11:48:56;;;;;;;16.20;7.63;;;;;;;-149.78;65.48;50117.47;5108676;28;20040;-73
2021/09/05 11:51:22;;;;;;;13.60;7.20;;;;;;;-149.78;63.84;50111.59;5108638;28;20050;-73
2021/09/05 11:54:01;;;;;;;17.20;7.50;;;;;;;-149.78;61.93;50107.69;5107394;28;20036;-73
2021/09/05 11:56:29;;;;;;;13.20;7.25;;;;;;;-149.78;62.34;50092.03;5107045;28;20050;-73
2021/09/05 11:59:04;;;;;;;14.68;7.60;;;;;;;-149.78;64.82;50119.41;5104771;28;20399;-72
2021/09/05 12:01:29;;;;;;;22.58;11.77;;;;;;;-149.78;68.24;50162.44;5105953;28;20024;-72
2021/09/05 12:03:55;;;;;;;14.38;7.00;;;;;;;-149.78;66.35;50125.28;5106783;28;20046;-73
2021/09/05 12:06:21;;;;;;;15.50;7.68;;;;;;;-149.78;66.05;50121.38;5106166;28;20046;-72
2021/09/05 12:08:48;;;;;;;14.60;8.05;;;;;;;-149.78;64.72;50099.88;5108285;28;20061;-73
2021/09/05 12:11:14;;;;;;;14.18;7.30;;;;;;;-149.78;65.36;50111.59;5105701;28;20036;-71
2021/09/05 12:13:51;;;;;;;16.25;7.32;;;;;;;-149.78;66.36;50115.50;5043380;28;20032;-69
2021/09/05 12:16:27;;;;;;;13.85;6.97;;;;;;;-149.78;67.15;50119.41;5107268;28;20063;-70
2021/09/05 12:19:07;;;;;;;59.08;24.55;;;;;;;-149.78;69.71;50137.03;5108708;28;20028;-71
2021/09/05 12:21:37;;;;;;;35.60;13.20;;;;;;;-149.78;67.84;50103.78;5102979;28;20039;-73
2021/09/05 12:24:04;;;;;;;18.42;8.13;;;;;;;-149.78;66.74;50138.97;5080535;28;20035;-72
2021/09/05 12:26:37;;;;;;;17.25;8.32;;;;;;;-149.78;66.04;50107.69;5099889;28;20070;-71
2021/09/05 12:29:03;;;;;;;18.13;7.82;;;;;;;-149.78;65.11;50119.41;5086457;28;20499;-70
2021/09/05 12:31:46;;;;;;;17.23;7.75;;;;;;;-149.78;65.67;50144.84;5077712;28;20044;-71
2021/09/05 12:34:35;;;;;;;21.60;8.80;;;;;;;-149.78;67.29;50076.41;5076890;28;20043;-73
2021/09/05 12:37:12;;;;;;;30.70;14.38;;;;;;;-149.78;66.27;50123.34;5094235;28;20483;-73
2021/09/05 12:39:39;;;;;;;30.95;12.65;;;;;;;-149.78;67.71;50107.69;5095239;28;20368;-71
2021/09/05 12:42:19;;;;;;;19.45;7.63;;;;;;;-149.78;65.37;50119.41;5091834;28;20077;-72
2021/09/05 12:44:52;;;;;;;44.45;18.10;;;;;;;-149.78;67.25;50115.50;5093854;28;20387;-74
2021/09/05 12:47:22;;;;;;;19.58;8.77;;;;;;;-149.78;64.80;50107.69;5093489;28;20035;-71
2021/09/05 12:49:48;;;;;;;17.70;8.10;;;;;;;-149.78;65.84;50135.06;5093059;28;20024;-73
2021/09/05 12:52:27;;;;;;;18.35;8.20;;;;;;;-149.78;66.11;50080.31;5089096;28;20044;-71
2021/09/05 12:54:52;;;;;;;13.60;7.80;;;;;;;-149.78;65.31;50146.81;5090805;28;20047;-72
2021/09/05 12:57:18;;;;;;;17.40;8.48;;;;;;;-149.78;64.18;50099.88;5073673;28;20024;-74
2021/09/05 12:59:44;;;;;;;19.10;8.85;;;;;;;-149.78;64.39;50092.03;5058350;28;20486;-74
2021/09/05 13:02:10;;;;;;;19.00;9.70;;;;;;;-149.78;64.18;50094.00;5093888;28;20551;-74
2021/09/05 13:04:36;;;;;;;15.30;8.27;;;;;;;-149.78;62.81;50101.81;5094075;28;20451;-74
2021/09/05 13:07:02;;;;;;;16.88;8.48;;;;;;;-149.78;62.29;50095.94;5074149;28;20044;-72
2021/09/05 13:09:28;;;;;;;20.27;10.90;;;;;;;-149.78;62.33;50097.91;5091722;28;20039;-74
2021/09/05 13:11:54;;;;;;;17.17;9.05;;;;;;;-149.78;61.72;50095.94;5092712;28;20066;-74
2021/09/05 13:14:20;;;;;;;29.40;16.55;;;;;;;-149.78;64.25;50092.03;5064824;28;20082;-74
2021/09/05 13:16:45;;;;;;;14.82;8.43;;;;;;;-149.78;62.30;50054.88;5069391;28;20443;-72
2021/09/05 13:19:12;;;;;;;19.13;9.30;;;;;;;-149.78;61.30;50099.88;5072252;28;20033;-73
2021/09/05 13:21:38;;;;;;;17.10;9.15;;;;;;;-149.78;63.26;50119.41;5070631;28;20033;-73
2021/09/05 13:24:04;;;;;;;14.70;7.97;;;;;;;-149.78;62.55;50078.34;5071277;28;20036;-72
2021/09/05 13:26:30;;;;;;;17.52;8.43;;;;;;;-149.78;62.53;50088.13;5070067;28;20115;-73
2021/09/05 13:28:59;;;;;;;16.35;9.70;;;;;;;-149.78;62.87;50084.22;5071985;28;20128;-72
2021/09/05 13:31:30;;;;;;;17.50;9.30;;;;;;;-149.78;62.15;50072.50;5070749;28;20044;-73
2021/09/05 13:33:56;;;;;;;14.43;8.40;;;;;;;-149.78;62.59;50095.94;5070511;28;20078;-72
2021/09/05 13:36:22;;;;;;;18.38;10.00;;;;;;;-149.78;62.56;50064.66;5071399;28;20033;-74
2021/09/05 13:38:48;;;;;;;19.38;9.25;;;;;;;-149.78;62.90;50095.94;5070558;28;20064;-72
2021/09/05 13:41:14;;;;;;;20.60;9.60;;;;;;;-149.78;62.00;50086.19;5069984;28;20180;-73
2021/09/05 13:43:40;;;;;;;19.90;9.30;;;;;;;-149.78;63.75;50092.03;5072390;28;20035;-73
2021/09/05 13:46:06;;;;;;;16.38;9.38;;;;;;;-149.78;62.71;50092.03;5069103;28;20037;-73
2021/09/05 13:48:32;;;;;;;18.05;9.15;;;;;;;-149.78;63.30;50135.06;5058807;28;20029;-73
2021/09/05 13:50:58;;;;;;;14.65;8.73;;;;;;;-149.78;64.31;50095.94;5071868;28;20059;-73
2021/09/05 13:53:23;;;;;;;20.50;9.60;;;;;;;-149.78;63.37;50115.50;5071520;28;20102;-73
2021/09/05 13:55:49;;;;;;;18.13;8.50;;;;;;;-149.78;61.57;50076.41;5069831;28;20025;-74
2021/09/05 13:58:15;;;;;;;14.93;8.70;;;;;;;-149.78;62.06;50068.56;5070911;28;20407;-72
2021/09/05 14:00:40;;;;;;;17.17;9.10;;;;;;;-149.78;62.98;50074.44;5069715;28;20118;-73
2021/09/05 14:03:06;;;;;;;19.70;9.02;;;;;;;-149.78;61.14;50092.03;5067633;28;20116;-73
2021/09/05 14:05:31;;;;;;;16.75;9.05;;;;;;;-149.78;61.88;50103.78;5057708;28;20482;-73
2021/09/05 14:07:57;;;;;;;16.65;9.60;;;;;;;-149.78;62.60;50092.03;5066913;28;20918;-72
2021/09/05 14:10:23;;;;;;;18.65;9.63;;;;;;;-149.78;61.75;50123.34;5059279;28;20439;-73
2021/09/05 14:12:49;;;;;;;18.35;9.30;;;;;;;-149.78;63.08;50060.75;5063972;28;20384;-72
2021/09/05 14:15:14;;;;;;;17.17;8.80;;;;;;;-149.78;63.18;50064.66;5069042;28;20479;-72
2021/09/05 14:17:40;;;;;;;19.33;9.60;;;;;;;-149.78;62.09;50115.50;5087403;28;20537;-73
2021/09/05 14:20:07;;;;;;;20.90;9.43;;;;;;;-149.78;62.28;50103.78;5089329;28;20502;-73
2021/09/05 14:22:33;;;;;;;14.65;8.82;;;;;;;-149.78;62.21;50084.22;5089920;28;20168;-72
2021/09/05 14:24:58;;;;;;;18.70;8.18;;;;;;;-149.78;63.62;50072.50;5084588;28;20123;-73
2021/09/05 14:27:31;;;;;;;20.05;9.85;;;;;;;-149.78;61.54;50080.31;5084594;28;20056;-73
2021/09/05 14:30:08;;;;;;;14.93;8.57;;;;;;;-149.78;62.63;50105.72;5088535;28;20043;-73
2021/09/05 14:51:17;;;;;;;18.63;10.30;;;;;;;-149.78;62.42;50064.66;5080635;28;20116;-73
2021/09/05 14:56:24;;;;;;;21.27;11.30;;;;;;;-149.78;60.17;50072.50;5082260;28;20032;-74
2021/09/05 14:59:00;;;;;;;21.27;9.43;;;;;;;-149.78;61.32;50076.41;5084118;28;20375;-73
2021/09/05 15:01:32;;;;;;;17.23;9.05;;;;;;;-149.78;62.20;50086.19;5058440;28;20043;-73
2021/09/05 15:04:13;;;;;;;17.70;9.48;;;;;;;-149.78;61.65;50056.84;5087461;28;20471;-73
2021/09/05 15:06:57;;;;;;;18.83;9.65;;;;;;;-149.78;61.57;50064.66;5068141;28;20036;-74
2021/09/05 15:12:08;;;;;;;16.73;9.55;;;;;;;-149.78;61.36;50060.75;5086723;28;20081;-71
2021/09/05 15:14:33;;;;;;;20.13;9.73;;;;;;;-149.78;60.30;50052.94;5087954;28;20075;-74
2021/09/05 15:17:00;;;;;;;19.13;9.98;;;;;;;-149.78;60.38;50092.03;5060907;28;20040;-74
2021/09/05 15:19:25;;;;;;;22.65;10.07;;;;;;;-149.78;61.94;50084.22;5087806;28;20040;-74
2021/09/05 15:21:58;;;;;;;21.23;9.70;;;;;;;-149.78;61.24;50107.69;5087659;28;20058;-70
2021/09/05 15:24:23;;;;;;;;;;;;;;;-149.78;61.16;50088.13;5069283;28;20040;-70
2021/09/05 15:26:58;;;;;;;14.85;8.63;;;;;;;-149.78;62.36;50021.63;5086679;28;19916;-75
2021/09/05 15:29:37;;;;;;;19.42;10.48;;;;;;;-149.78;61.89;50127.25;5088565;28;20487;-75
2021/09/05 15:51:23;;;;;;;15.52;9.52;;;;;;;-149.78;61.70;50076.41;5089409;28;20067;-70
2021/09/05 15:56:15;;;;;;;16.15;9.40;;;;;;;-149.78;60.91;50080.31;5088084;28;20039;-70
2021/09/05 15:58:45;;;;;;;18.15;9.25;;;;;;;-149.78;61.63;50054.88;5089576;28;20070;-73
2021/09/05 16:06:54;;;;;;;16.27;9.40;;;;;;;-149.78;62.38;50072.50;5090196;28;20028;-74
2021/09/05 16:17:30;;;;;;;16.40;8.82;;;;;;;-149.78;61.76;50029.47;5085103;28;20133;-73
2021/09/05 16:19:55;;;;;;;17.92;9.55;;;;;;;-149.78;63.50;50021.63;5089090;28;20653;-73
2021/09/05 16:22:21;;;;;;;17.83;9.98;;;;;;;-149.78;61.80;50045.09;5064113;28;20407;-73
2021/09/05 16:24:46;;;;;;;15.50;8.35;;;;;;;-149.78;62.13;50088.13;5086586;28;20120;-73
2021/09/05 16:27:15;;;;;;;16.08;9.20;;;;;;;-149.78;62.26;50033.38;5085986;28;20487;-72
2021/09/05 16:29:45;;;;;;;16.90;9.30;;;;;;;-149.78;63.11;50052.94;5091181;28;20032;-67
2021/09/05 16:32:18;;;;;;;16.65;8.60;;;;;;;-149.78;62.88;50035.34;5071544;28;20431;-66
2021/09/05 16:42:50;;;;;;;17.52;9.88;;;;;;;-149.78;63.24;50060.75;5090884;28;20039;-69
2021/09/05 16:45:16;;;;;;;16.67;9.00;;;;;;;-149.78;63.25;50049.03;5091909;28;20125;-69
2021/09/05 16:47:42;;;;;;;17.00;9.00;;;;;;;-149.78;62.67;50064.66;5092093;28;20493;-67
2021/09/05 16:50:08;;;;;;;17.38;8.57;;;;;;;-149.78;63.35;50017.72;5092000;28;20036;-68
2021/09/05 16:52:35;;;;;;;15.25;8.60;;;;;;;-149.78;62.35;50064.66;5088104;28;20119;-68
2021/09/05 16:55:01;;;;;;;16.90;9.25;;;;;;;-149.78;63.19;50056.84;5069285;28;20066;-66
2021/09/05 16:57:26;;;;;;;17.90;9.57;;;;;;;-149.78;64.47;50041.19;5090090;28;20024;-68
2021/09/05 16:59:52;;;;;;;22.27;10.02;;;;;;;-149.78;63.45;50045.09;5092390;28;20499;-68
2021/09/05 17:02:18;;;;;;;15.70;8.90;;;;;;;-149.78;63.03;50049.03;5075978;28;20047;-68
2021/09/05 17:04:43;;;;;;;17.88;9.70;;;;;;;-149.78;63.99;50088.13;5063557;28;20041;-67
2021/09/05 17:07:08;;;;;;;14.80;7.97;;;;;;;-149.78;65.70;50041.19;5080910;28;20028;-67
2021/09/05 17:09:34;;;;;;;16.10;9.13;;;;;;;-149.78;65.89;50080.31;5082258;28;20036;-68
2021/09/05 17:12:00;;;;;;;16.40;8.57;;;;;;;-149.78;64.76;50060.75;5084140;28;20032;-67
2021/09/05 17:14:27;;;;;;;14.85;8.98;;;;;;;-149.78;65.27;50052.94;5089923;28;20490;-68
2021/09/05 17:16:53;;;;;;;16.55;8.20;;;;;;;-149.78;67.25;50045.09;5082124;28;20041;-67
2021/09/05 17:19:19;;;;;;;15.60;8.15;;;;;;;-149.78;66.88;50033.38;5082948;28;20036;-67
2021/09/05 17:21:46;;;;;;;17.35;8.55;;;;;;;-149.78;67.11;50037.28;5086860;28;20027;-67
2021/09/05 17:24:13;;;;;;;17.15;9.07;;;;;;;-149.78;67.76;50045.09;5090222;28;20024;-67
2021/09/05 17:26:38;;;;;;;16.85;9.05;;;;;;;-149.78;69.46;50041.19;5092557;28;20116;-68
2021/09/05 17:29:04;;;;;;;15.32;8.57;;;;;;;-149.78;70.23;50056.84;5092620;28;20126;-68
2021/09/05 17:31:30;;;;;;;15.80;8.88;;;;;;;-149.78;69.83;50060.75;5072287;28;20038;-70
2021/09/05 17:33:56;;;;;;;16.80;9.50;;;;;;;-149.78;70.88;50064.66;5091507;28;20119;-69
2021/09/05 17:36:21;;;;;;;12.43;8.02;;;;;;;-149.78;72.51;50064.66;5088013;28;20165;-68
2021/09/05 17:38:48;;;;;;;16.40;8.90;;;;;;;-149.78;71.67;50054.88;5090276;28;20043;-68
2021/09/05 17:41:14;;;;;;;18.58;9.25;;;;;;;-149.78;72.00;50064.66;5072242;28;20040;-68
2021/09/05 17:43:41;;;;;;;16.90;8.60;;;;;;;-149.78;74.81;50047.06;5088961;28;20112;-68
2021/09/05 17:46:07;;;;;;;18.50;9.70;;;;;;;-149.78;72.84;50052.94;5088295;28;20036;-68
2021/09/05 17:48:33;;;;;;;18.10;9.27;;;;;;;-149.78;77.42;50060.75;5090022;28;20043;-68
2021/09/05 17:51:00;;;;;;;12.50;7.90;;;;;;;-149.78;78.57;50072.50;5090221;28;20032;-67
2021/09/05 17:53:25;;;;;;;15.25;8.63;;;;;;;-149.78;78.18;50060.75;5089359;28;20060;-67
2021/09/05 17:55:51;;;;;;;18.77;9.50;;;;;;;-149.78;77.74;50052.94;5092577;28;20459;-66
2021/09/05 17:58:17;;;;;;;18.35;9.55;;;;;;;-149.78;76.85;50062.72;5071253;28;20118;-67
2021/09/05 18:00:42;;;;;;;16.05;8.52;;;;;;;-149.78;76.75;50084.22;5086592;28;20433;-67
2021/09/05 18:03:08;;;;;;;21.35;8.95;;;;;;;-149.78;76.73;50076.41;5079860;28;20479;-67
2021/09/05 18:05:33;;;;;;;15.50;8.60;;;;;;;-149.78;76.80;50080.31;5089680;28;20066;-67
2021/09/05 18:08:00;;;;;;;15.48;9.18;;;;;;;-149.78;77.25;50049.03;5075695;28;20029;-67
2021/09/05 18:10:26;;;;;;;19.73;9.07;;;;;;;-149.78;77.64;50064.66;5074771;28;20029;-67
2021/09/05 18:12:52;;;;;;;19.25;9.38;;;;;;;-149.78;78.59;50060.75;5057639;28;20047;-65
2021/09/05 18:15:18;;;;;;;18.85;9.90;;;;;;;-149.78;79.55;50056.84;5085442;28;20066;-66
2021/09/05 18:17:49;;;;;;;17.95;9.18;;;;;;;-149.78;80.75;50084.22;5048978;28;20503;-66
2021/09/05 18:20:14;;;;;;;21.20;10.48;;;;;;;-149.78;82.80;50072.50;5082041;28;20036;-65
2021/09/05 18:22:40;;;;;;;23.90;9.13;;;;;;;-149.78;83.90;50064.66;5082695;28;20349;-65
2021/09/05 18:25:07;;;;;;;18.63;9.20;;;;;;;-149.78;83.24;50095.94;5084747;28;20024;-65
2021/09/05 18:27:33;;;;;;;17.92;9.90;;;;;;;-149.78;82.19;50072.50;5089379;28;20115;-66
2021/09/05 18:29:59;;;;;;;22.23;10.68;;;;;;;-149.78;82.35;50086.19;5090896;28;20127;-66
2021/09/05 18:32:24;;;;;;;17.67;10.05;;;;;;;-149.78;82.75;50060.75;5092104;28;20035;-66
2021/09/05 18:34:50;;;;;;;21.08;10.13;;;;;;;-149.78;81.90;50092.03;5083619;28;20033;-66
2021/09/05 18:37:16;;;;;;;20.92;10.65;;;;;;;-149.78;82.50;50076.41;5092635;28;20044;-66
2021/09/05 18:39:42;;;;;;;15.38;9.52;;;;;;;-149.78;83.27;50080.31;5080405;28;20074;-65
2021/09/05 18:42:09;;;;;;;18.83;10.23;;;;;;;-149.78;84.14;50095.94;5084669;28;20085;-65
2021/09/05 18:44:35;;;;;;;18.50;10.27;;;;;;;-149.78;84.39;50080.31;5087199;28;20036;-67
2021/09/05 18:47:00;;;;;;;17.98;10.25;;;;;;;-149.78;85.35;50097.91;5084035;28;20399;-66
2021/09/05 18:49:26;;;;;;;18.50;10.35;;;;;;;-149.78;85.37;50052.94;5072135;28;20119;-61
2021/09/05 18:51:54;;;;;;;20.25;10.15;;;;;;;-149.78;86.96;50086.19;5077775;28;20047;-61
2021/09/05 18:54:20;;;;;;;16.63;9.60;;;;;;;-149.78;88.29;50076.41;5078180;28;20042;-61
2021/09/05 18:56:46;;;;;;;21.05;10.98;;;;;;;-149.78;87.90;50101.81;5088503;28;20028;-61
2021/09/05 18:59:12;;;;;;;22.40;10.48;;;;;;;-149.78;90.76;50115.50;5086812;28;20040;-61
2021/09/05 19:01:37;;;;;;;18.42;10.98;;;;;;;-149.78;94.41;50127.25;5089291;28;20048;-61
2021/09/05 19:04:03;;;;;;;18.73;9.65;;;;;;;-149.78;100.00;50088.13;5089487;28;20035;-61
2021/09/05 19:06:31;;;;;;;17.58;9.50;;;;;;;-149.78;98.73;50101.81;5086903;28;20024;-61
2021/09/05 19:08:57;;;;;;;21.25;9.73;;;;;;;-149.78;100.00;50115.50;5085908;28;20032;-61
2021/09/05 19:11:23;;;;;;;21.48;10.13;;;;;;;-149.78;100.00;50092.03;5090576;28;20498;-62
2021/09/05 19:13:49;;;;;;;17.67;10.10;;;;;;;-149.78;100.00;50103.78;5090100;28;20440;-61
2021/09/05 19:16:19;;;;;;;19.25;9.57;;;;;;;-149.78;100.00;50088.13;5082968;28;20457;-61
2021/09/05 19:18:46;;;;;;;17.90;10.32;;;;;;;-149.78;100.00;50095.94;5083916;28;20028;-60
2021/09/05 19:21:14;;;;;;;22.20;11.02;;;;;;;-149.78;100.00;50119.41;5084482;28;20033;-61
2021/09/05 19:23:41;;;;;;;19.25;10.73;;;;;;;-149.78;100.00;50084.22;5087503;28;20040;-60
2021/09/05 19:26:07;;;;;;;18.52;10.75;;;;;;;-149.78;100.00;50119.41;5088799;28;20059;-61
2021/09/05 19:28:34;;;;;;;20.20;11.50;;;;;;;-149.78;100.00;50142.88;5067925;28;20479;-60
2021/09/05 19:31:00;;;;;;;22.15;10.85;;;;;;;-149.78;100.00;50111.59;5087208;28;20483;-60
2021/09/05 19:33:26;;;;;;;20.38;12.13;;;;;;;-149.78;100.00;50127.25;5089791;28;20027;-61
2021/09/05 19:35:53;;;;;;;24.08;11.50;;;;;;;-149.78;100.00;50138.97;5091165;28;20032;-61
2021/09/05 19:38:19;;;;;;;21.77;11.20;;;;;;;-149.78;100.00;50135.06;5093805;28;20024;-60
2021/09/05 19:40:44;;;;;;;15.98;9.60;;;;;;;-149.78;100.00;50129.19;5091645;28;20380;-61
2021/09/05 19:43:10;;;;;;;23.90;11.65;;;;;;;-149.78;100.00;50131.16;5096095;28;20032;-61
2021/09/05 19:45:36;;;;;;;20.30;10.68;;;;;;;-149.78;100.00;50123.34;5094552;28;20043;-61
2021/09/05 19:48:02;;;;;;;22.70;11.30;;;;;;;-149.78;100.00;50123.34;5093263;28;20028;-61
2021/09/05 19:50:28;;;;;;;20.30;11.07;;;;;;;-149.78;100.00;50166.34;5092046;28;20036;-61
2021/09/05 19:52:54;;;;;;;23.45;10.98;;;;;;;-149.78;100.00;50162.44;5090294;28;20020;-61
2021/09/05 19:55:23;;;;;;;23.40;10.85;;;;;;;-149.78;100.00;50150.72;5089034;28;20488;-61
2021/09/05 19:57:49;;;;;;;26.83;12.65;;;;;;;-149.78;100.00;50150.72;5093369;28;20051;-61
2021/09/05 20:00:15;;;;;;;20.23;10.63;;;;;;;-149.78;100.00;50150.72;5091328;28;20040;-61
2021/09/05 20:02:44;;;;;;;24.02;11.95;;;;;;;-149.78;100.00;50178.09;5085846;28;20032;-61
2021/09/05 20:05:10;;;;;;;23.70;10.88;;;;;;;-149.78;100.00;50138.97;5083275;28;20517;-61
2021/09/05 20:07:36;;;;;;;23.17;11.95;;;;;;;-149.78;100.00;50138.97;5089529;28;20471;-61
2021/09/05 20:10:03;;;;;;;22.40;11.77;;;;;;;-149.78;100.00;50123.34;5086380;28;20031;-61
2021/09/05 20:12:29;;;;;;;21.67;11.38;;;;;;;-149.78;100.00;50154.63;5092384;28;20080;-61
2021/09/05 20:14:55;;;;;;;20.90;11.82;;;;;;;-149.78;100.00;50146.81;5092814;28;20119;-61
2021/09/05 20:17:21;;;;;;;27.70;12.77;;;;;;;-149.78;100.00;50170.25;5089038;28;20047;-61
2021/09/05 20:19:46;;;;;;;24.85;12.05;;;;;;;-149.78;100.00;50133.09;5073649;28;20506;-61
2021/09/05 20:22:12;;;;;;;24.92;12.00;;;;;;;-149.78;100.00;50172.22;5091225;28;20040;-60
2021/09/05 20:24:38;;;;;;;26.08;12.93;;;;;;;-149.78;100.00;50127.25;5091915;28;20035;-61
2021/09/05 20:27:04;;;;;;;23.05;12.27;;;;;;;-149.78;100.00;50142.88;5093973;28;20035;-61
2021/09/05 20:29:29;;;;;;;23.48;12.55;;;;;;;-149.78;100.00;50166.34;5092196;28;20024;-61
2021/09/05 20:31:55;;;;;;;24.25;13.10;;;;;;;-149.78;100.00;50182.00;5071255;28;20040;-61
2021/09/05 20:34:21;;;;;;;24.50;12.38;;;;;;;-149.78;100.00;50172.22;5093376;28;20050;-61
2021/09/05 20:36:46;;;;;;;24.77;12.32;;;;;;;-149.78;100.00;50142.88;5084363;28;20044;-61
2021/09/05 20:39:12;;;;;;;26.35;13.88;;;;;;;-149.78;100.00;50166.34;5091926;28;20039;-60
2021/09/05 20:41:38;;;;;;;24.20;13.15;;;;;;;-149.78;100.00;50166.34;5092650;28;20040;-61
2021/09/05 20:44:04;;;;;;;27.88;14.43;;;;;;;-149.78;100.00;50176.13;5070295;28;20130;-61
2021/09/05 20:46:29;;;;;;;33.33;14.02;;;;;;;-149.78;100.00;50138.97;5089335;28;20479;-60
2021/09/05 20:48:55;;;;;;;21.77;12.23;;;;;;;-149.78;100.00;50146.81;5086335;28;20078;-61
2021/09/05 20:51:21;;;;;;;49.90;22.63;;;;;;;-149.78;100.00;50162.44;5092814;28;20129;-61
2021/09/05 20:53:47;;;;;;;52.50;24.70;;;;;;;-149.78;100.00;50127.25;5083728;28;20037;-61
2021/09/05 20:56:16;;;;;;;41.95;18.88;;;;;;;-149.78;100.00;50154.63;5088771;28;20028;-61
2021/09/05 20:58:43;;;;;;;27.10;13.45;;;;;;;-149.78;100.00;50150.72;5088010;28;20040;-60
2021/09/05 21:01:12;;;;;;;30.08;13.43;;;;;;;-149.78;100.00;50154.63;5088793;28;20098;-60
2021/09/05 21:03:37;;;;;;;31.02;12.45;;;;;;;-149.78;100.00;50146.81;5085598;28;20399;-60
2021/09/05 21:06:03;;;;;;;26.55;12.95;;;;;;;-149.78;100.00;50158.53;5087492;28;20039;-60
2021/09/05 21:08:30;;;;;;;28.52;13.40;;;;;;;-149.78;100.00;50170.25;5090199;28;20046;-61
2021/09/05 21:10:57;;;;;;;29.83;13.98;;;;;;;-149.78;100.00;50133.09;5091742;28;20031;-61
2021/09/05 21:13:23;;;;;;;30.67;12.48;;;;;;;-149.78;100.00;50185.91;5090700;28;20031;-61
2021/09/05 21:15:49;;;;;;;27.92;12.35;;;;;;;-149.78;100.00;50174.19;5086939;28;20503;-61
2021/09/05 21:18:16;;;;;;;26.40;12.70;;;;;;;-149.78;100.00;50183.97;5062785;28;20032;-61
2021/09/05 21:20:42;;;;;;;26.00;12.07;;;;;;;-149.78;100.00;50150.72;5088065;28;20040;-61
2021/09/05 21:23:09;;;;;;;26.13;12.10;;;;;;;-149.78;100.00;50195.69;5085107;28;20032;-61
2021/09/05 21:25:38;;;;;;;29.63;13.00;;;;;;;-149.78;100.00;50142.88;5052743;28;20031;-60
2021/09/05 21:28:04;;;;;;;25.13;12.05;;;;;;;-149.78;100.00;50162.44;5090296;28;20062;-60
2021/09/05 21:30:31;;;;;;;26.52;12.52;;;;;;;-149.78;100.00;50189.81;5091121;28;20451;-60
2021/09/05 21:32:58;;;;;;;26.13;12.18;;;;;;;-149.78;100.00;50197.66;5089447;28;20069;-61
2021/09/05 21:35:23;;;;;;;25.70;12.35;;;;;;;-149.78;100.00;50201.56;5091746;28;20040;-61
2021/09/05 21:37:49;;;;;;;25.80;12.75;;;;;;;-149.78;100.00;50178.09;5093100;28;20028;-60
2021/09/05 21:40:16;;;;;;;29.65;14.02;;;;;;;-149.78;100.00;50174.19;5093016;28;20039;-61
2021/09/05 21:42:42;;;;;;;24.00;12.02;;;;;;;-149.78;100.00;50189.81;5088669;28;20051;-60
2021/09/05 21:45:09;;;;;;;25.60;13.20;;;;;;;-149.78;100.00;50125.28;5089124;28;20028;-61
2021/09/05 21:47:35;;;;;;;25.13;12.20;;;;;;;-149.78;100.00;50178.09;5089168;28;20028;-60
2021/09/05 21:50:01;;;;;;;24.95;12.45;;;;;;;-149.78;100.00;50166.34;5088554;28;20028;-61
2021/09/05 21:52:26;;;;;;;25.80;12.40;;;;;;;-149.78;100.00;50209.38;5092871;28;20023;-61
2021/09/05 21:54:52;;;;;;;29.15;13.00;;;;;;;-149.78;100.00;50182.00;5090653;28;20483;-60
2021/09/05 21:57:18;;;;;;;27.02;12.98;;;;;;;-149.78;100.00;50185.91;5069542;28;20379;-60
2021/09/05 21:59:43;;;;;;;26.33;13.43;;;;;;;-149.78;100.00;50182.00;5092583;28;20119;-61
2021/09/05 22:02:09;;;;;;;25.30;12.32;;;;;;;-149.78;100.00;50187.88;5090246;28;20035;-61
2021/09/05 22:04:35;;;;;;;26.90;13.25;;;;;;;-149.78;100.00;50201.56;5071781;28;20074;-61
2021/09/05 22:07:01;;;;;;;27.95;13.00;;;;;;;-149.78;100.00;50180.03;5091287;28;20036;-61
2021/09/05 22:09:26;;;;;;;29.30;13.35;;;;;;;-149.78;100.00;50174.19;5069206;28;20433;-61
2021/09/05 22:11:52;;;;;;;31.42;13.27;;;;;;;-149.78;100.00;50189.81;5092651;28;20024;-60
2021/09/05 22:14:18;;;;;;;26.15;12.77;;;;;;;-149.78;100.00;50211.34;5073544;28;20441;-61
2021/09/05 22:16:44;;;;;;;29.98;13.23;;;;;;;-149.78;100.00;50178.09;5073976;28;20047;-60
2021/09/05 22:19:11;;;;;;;27.77;12.50;;;;;;;-149.78;100.00;50201.56;5087357;28;20089;-60
2021/09/05 22:21:36;;;;;;;27.63;13.27;;;;;;;-149.78;100.00;50174.19;5082409;28;20157;-60
2021/09/05 22:24:02;;;;;;;25.10;12.98;;;;;;;-149.78;100.00;50201.56;5078508;28;20032;-61
2021/09/05 22:26:29;;;;;;;26.38;12.93;;;;;;;-149.78;100.00;50213.28;5077537;28;20074;-61
2021/09/05 22:28:55;;;;;;;35.38;14.35;;;;;;;-149.78;100.00;50197.66;5080319;28;20036;-60
2021/09/05 22:31:21;;;;;;;62.65;25.23;;;;;;;-149.78;100.00;50209.38;5087054;28;20423;-61
2021/09/05 22:33:48;;;;;;;36.40;16.70;;;;;;;-149.78;100.00;50209.38;5083461;28;20161;-61
2021/09/05 22:36:14;;;;;;;24.80;12.65;;;;;;;-149.78;100.00;50205.47;5085268;28;20036;-60
2021/09/05 22:38:40;;;;;;;33.15;14.82;;;;;;;-149.78;100.00;50185.91;5081308;28;20046;-60
2021/09/05 22:41:06;;;;;;;32.35;15.20;;;;;;;-149.78;100.00;50201.56;5077344;28;20056;-61
2021/09/05 22:43:32;;;;;;;33.83;15.02;;;;;;;-149.78;100.00;50183.97;5077984;28;20064;-60
2021/09/05 22:45:58;;;;;;;30.77;14.88;;;;;;;-149.78;100.00;50164.41;5054126;28;20492;-61
2021/09/05 22:48:23;;;;;;;30.25;15.23;;;;;;;-149.78;100.00;50213.28;5071269;28;20033;-60
2021/09/05 22:50:49;;;;;;;31.80;14.77;;;;;;;-149.78;100.00;50166.34;5080341;28;20110;-60
2021/09/05 22:53:15;;;;;;;28.58;14.82;;;;;;;-149.78;100.00;50217.19;5081017;28;20036;-60
2021/09/05 22:55:41;;;;;;;33.15;15.27;;;;;;;-149.78;100.00;50209.38;5069164;28;20499;-61
2021/09/05 22:58:07;;;;;;;32.53;15.07;;;;;;;-149.78;100.00;50182.00;5086018;28;20024;-60
2021/09/05 23:00:37;;;;;;;31.65;15.77;;;;;;;-149.78;100.00;50189.81;5082162;28;20539;-61
2021/09/05 23:03:03;;;;;;;33.53;15.38;;;;;;;-149.78;100.00;50189.81;5085507;28;20035;-60
2021/09/05 23:05:30;;;;;;;32.50;14.73;;;;;;;-149.78;100.00;50205.47;5084724;28;20116;-61
2021/09/05 23:07:56;;;;;;;35.08;15.02;;;;;;;-149.78;100.00;50185.91;5082410;28;20043;-60
2021/09/05 23:10:21;;;;;;;31.38;15.73;;;;;;;-149.78;100.00;50223.06;5090470;28;20032;-61
2021/09/05 23:12:47;;;;;;;33.03;14.45;;;;;;;-149.78;100.00;50230.88;5084159;28;20044;-61
2021/09/05 23:15:12;;;;;;;31.05;15.02;;;;;;;-149.78;100.00;50201.56;5070078;28;20067;-61
2021/09/05 23:17:39;;;;;;;33.25;15.55;;;;;;;-149.78;100.00;50221.13;5088695;28;20133;-61
2021/09/05 23:20:07;;;;;;;33.47;14.80;;;;;;;-149.78;100.00;50201.56;5082109;28;20429;-60
2021/09/05 23:22:33;;;;;;;34.60;15.38;;;;;;;-149.78;100.00;50172.22;5086151;28;20028;-60
2021/09/05 23:24:58;;;;;;;30.45;15.38;;;;;;;-149.78;100.00;50189.81;5084056;28;20093;-61